Time;durP1;ratioP1;P1;durP2;ratioP2;P2;SDS_P1;SDS_P2;PMS_P1;PMS_P2;Temp;Humidity;BMP_temperature;BMP_pressure;BME280_temperature;BME280_humidity;BME280_pressure;Samples;Min_cycle;Max_cycle;Signal;HPM_P1;HPM_P2
2023/06/17 00:00:58;;;;;;;;;;;;;;;16.77;66.26;100916.69;7348996;19;20274;-59
2023/06/17 00:03:23;;;;;;;;;;;;;;;17.04;65.39;100962.09;7346337;19;19947;-59
2023/06/17 00:05:48;;;;;;;;;;;;;;;17.04;66.29;100962.09;7348182;19;20493;-59
2023/06/17 00:08:13;;;;;;;;;;;;;;;17.06;65.74;100965.50;7345882;19;19933;-59
2023/06/17 00:10:39;;;;;;;;;;;;;;;17.08;65.63;100958.34;7350622;19;19923;-59
2023/06/17 00:13:07;;;;;;;;;;;;;;;17.08;65.46;100961.00;7342385;19;19933;-59
2023/06/17 00:15:33;;;;;;;;;;;;;;;17.09;66.11;100965.38;7347606;19;19926;-59
2023/06/17 00:18:00;;;;;;;;;;;;;;;17.10;66.24;100969.72;7346596;19;19926;-59
2023/06/17 00:20:25;;;;;;;;;;;;;;;17.11;65.98;100968.78;7348299;19;19934;-59
2023/06/17 00:22:52;;;;;;;;;;;;;;;17.13;66.14;100972.19;7349551;19;19935;-59
2023/06/17 00:25:18;;;;;;;;;;;;;;;17.13;65.89;100972.19;7346177;19;19927;-59
2023/06/17 00:27:43;;;;;;;;;;;;;;;17.14;65.84;100973.94;7342770;19;19988;-59
2023/06/17 00:30:09;;;;;;;;;;;;;;;16.94;66.39;100937.03;7348223;19;19951;-59
2023/06/17 00:32:35;;;;;;;;;;;;;;;17.16;66.28;100965.94;7348564;19;19922;-59
2023/06/17 00:35:02;;;;;;;;;;;;;;;17.17;66.15;100968.50;7343154;19;20344;-59
2023/06/17 00:37:27;;;;;;;;;;;;;;;17.17;66.66;100960.56;7346885;19;19919;-59
2023/06/17 00:39:52;;;;;;;;;;;;;;;17.19;66.31;100961.38;7348949;19;20030;-59
2023/06/17 00:42:17;;;;;;;;;;;;;;;17.21;66.62;100959.50;7346753;19;20348;-58
2023/06/17 00:44:43;;;;;;;;;;;;;;;17.22;67.02;100957.72;7345553;19;19930;-58
2023/06/17 00:47:09;;;;;;;;;;;;;;;17.23;67.53;100952.38;7348327;19;19951;-58
2023/06/17 00:49:36;;;;;;;;;;;;;;;17.24;67.44;100946.19;7348089;19;20658;-59
2023/06/17 00:52:04;;;;;;;;;;;;;;;17.26;67.95;100936.41;7355541;19;20327;-59
2023/06/17 00:54:36;;;;;;;;;;;;;;;17.28;67.68;100939.81;7352141;19;19942;-59
2023/06/17 00:57:01;;;;;;;;;;;;;;;17.29;67.88;100938.91;7355186;19;19914;-58
2023/06/17 00:59:31;;;;;;;;;;;;;;;17.31;67.94;100934.41;7357320;19;21906;-58
2023/06/17 01:01:56;;;;;;;;;;;;;;;17.31;68.29;100925.63;7349562;19;20339;-58
2023/06/17 01:04:22;;;;;;;;;;;;;;;17.33;68.03;100931.69;7354200;19;19927;-59
2023/06/17 01:06:52;;;;;;;;;;;;;;;17.34;68.07;100931.63;7355500;19;19930;-59
2023/06/17 01:09:20;;;;;;;;;;;;;;;17.34;67.51;100923.72;7349743;19;19933;-59
2023/06/17 01:11:46;;;;;;;;;;;;;;;17.35;67.75;100924.56;7356411;19;19925;-58
2023/06/17 01:14:13;;;;;;;;;;;;;;;17.35;67.77;100925.41;7347127;19;20356;-58
2023/06/17 01:16:42;;;;;;;;;;;;;;;17.34;67.92;100929.00;7352637;19;20687;-59
2023/06/17 01:19:18;;;;;;;;;;;;;;;17.34;67.84;100926.34;7348416;19;19911;-58
2023/06/17 01:21:49;;;;;;;;;;;;;;;17.34;68.25;100923.72;7349453;19;19926;-58
2023/06/17 01:24:28;;;;;;;;;;;;;;;17.34;68.08;100923.72;7351562;19;19966;-59
2023/06/17 01:26:57;;;;;;;;;;;;;;;17.34;67.91;100921.06;7349434;19;19923;-59
2023/06/17 01:29:26;;;;;;;;;;;;;;;17.34;67.62;100918.44;7351120;19;20328;-59
2023/06/17 01:31:52;;;;;;;;;;;;;;;17.34;67.48;100918.44;7351514;19;19934;-59
2023/06/17 01:34:19;;;;;;;;;;;;;;;17.06;67.04;100870.50;7349330;19;19914;-58
2023/06/17 01:36:47;;;;;;;;;;;;;;;17.32;67.65;100919.41;7353504;19;19915;-59
2023/06/17 01:39:15;;;;;;;;;;;;;;;17.32;67.16;100919.41;7359748;19;19932;-59
2023/06/17 01:41:46;;;;;;;;;;;;;;;17.30;67.59;100919.50;7361158;19;19938;-58
2023/06/17 01:44:11;;;;;;;;;;;;;;;17.29;66.92;100904.59;7359004;19;19948;-59
2023/06/17 01:46:37;;;;;;;;;;;;;;;17.29;67.36;100909.03;7361174;19;19915;-59
2023/06/17 01:49:02;;;;;;;;;;;;;;;17.28;66.49;100909.94;7355082;19;19919;-59
2023/06/17 01:51:27;;;;;;;;;;;;;;;17.26;67.03;100907.38;7361321;19;20732;-59
2023/06/17 01:53:53;;;;;;;;;;;;;;;17.25;66.77;100903.03;7356439;19;19919;-59
2023/06/17 01:56:18;;;;;;;;;;;;;;;17.24;66.67;100906.59;7358803;19;20284;-59
2023/06/17 01:58:43;;;;;;;;;;;;;;;17.23;67.23;100904.88;7352322;19;20026;-59
2023/06/17 02:01:09;;;;;;;;;;;;;;;17.23;67.42;100899.59;7359464;19;19923;-59
2023/06/17 02:03:35;;;;;;;;;;;;;;;17.22;67.63;100897.88;7353917;19;19954;-59
2023/06/17 02:06:01;;;;;;;;;;;;;;;17.23;67.91;100899.59;7332807;19;19968;-59
2023/06/17 02:08:26;;;;;;;;;;;;;;;17.23;68.27;100889.03;7359873;19;19927;-59
2023/06/17 02:10:52;;;;;;;;;;;;;;;17.25;68.24;100891.63;7360209;19;20453;-59
2023/06/17 02:13:17;;;;;;;;;;;;;;;17.25;68.09;100876.63;7358927;19;19930;-59
2023/06/17 02:15:42;;;;;;;;;;;;;;;17.25;67.80;100881.91;7346955;19;20502;-59
2023/06/17 02:18:08;;;;;;;;;;;;;;;17.27;68.09;100879.19;7357460;19;19929;-59
2023/06/17 02:20:34;;;;;;;;;;;;;;;17.27;67.63;100882.69;7355919;19;19929;-59
2023/06/17 02:22:59;;;;;;;;;;;;;;;17.28;68.05;100878.25;7359734;19;19919;-59
2023/06/17 02:25:25;;;;;;;;;;;;;;;17.28;68.14;100887.03;7356635;19;20002;-59
2023/06/17 02:27:51;;;;;;;;;;;;;;;17.28;67.69;100880.91;7355403;19;19915;-58
2023/06/17 02:30:16;;;;;;;;;;;;;;;17.27;67.98;100885.31;7357197;19;20463;-59
2023/06/17 02:32:42;;;;;;;;;;;;;;;17.26;68.68;100882.75;7353943;19;19930;-59
2023/06/17 02:35:07;;;;;;;;;;;;;;;17.26;68.29;100877.47;7359413;19;19938;-59
2023/06/17 02:37:33;;;;;;;;;;;;;;;17.25;68.66;100881.91;7357843;19;20426;-59
2023/06/17 02:39:58;;;;;;;;;;;;;;;17.25;68.79;100886.34;7354976;19;19931;-60
2023/06/17 02:42:23;;;;;;;;;;;;;;;17.22;68.12;100879.41;7356647;19;19922;-59
2023/06/17 02:44:48;;;;;;;;;;;;;;;17.22;68.51;100875.91;7357973;19;20672;-58
2023/06/17 02:47:13;;;;;;;;;;;;;;;17.21;68.68;100877.69;7355876;19;19919;-59
2023/06/17 02:49:39;;;;;;;;;;;;;;;17.22;68.60;100871.47;7358377;19;20030;-59
2023/06/17 02:52:05;;;;;;;;;;;;;;;17.20;68.87;100865.44;7357404;19;20281;-59
2023/06/17 02:54:30;;;;;;;;;;;;;;;17.20;68.81;100862.81;7354263;19;19911;-59
2023/06/17 02:56:55;;;;;;;;;;;;;;;17.20;68.98;100867.22;7359126;19;19923;-59
2023/06/17 02:59:21;;;;;;;;;;;;;;;17.19;68.67;100855.81;7357216;19;20379;-59
2023/06/17 03:01:47;;;;;;;;;;;;;;;17.19;68.68;100850.53;7355131;19;19919;-59
2023/06/17 03:04:12;;;;;;;;;;;;;;;17.17;68.74;100831.25;7354862;19;20203;-59
2023/06/17 03:06:40;;;;;;;;;;;;;;;17.16;69.07;100829.56;7358285;19;20263;-59
2023/06/17 03:09:06;;;;;;;;;;;;;;;17.15;68.70;100819.94;7355457;19;21911;-59
2023/06/17 03:11:31;;;;;;;;;;;;;;;17.15;69.06;100822.59;7356289;19;20005;-59
2023/06/17 03:13:56;;;;;;;;;;;;;;;17.14;69.13;100810.31;7351503;19;19919;-59
2023/06/17 03:16:24;;;;;;;;;;;;;;;17.14;69.16;100820.03;7359088;19;19919;-59
2023/06/17 03:18:50;;;;;;;;;;;;;;;17.12;68.78;100828.00;7332053;19;19919;-59
2023/06/17 03:21:15;;;;;;;;;;;;;;;17.11;68.44;100821.00;7359788;19;19925;-59
2023/06/17 03:23:41;;;;;;;;;;;;;;;17.10;68.64;100821.94;7357710;19;19935;-59
2023/06/17 03:26:07;;;;;;;;;;;;;;;17.09;68.77;100830.78;7352583;19;19918;-59
2023/06/17 03:28:32;;;;;;;;;;;;;;;17.06;69.25;100823.88;7351837;19;19926;-59
2023/06/17 03:30:58;;;;;;;;;;;;;;;17.06;69.27;100833.56;7359506;19;19923;-59
2023/06/17 03:33:23;;;;;;;;;;;;;;;17.05;69.21;100829.22;7356017;19;19925;-59
2023/06/17 03:35:48;;;;;;;;;;;;;;;17.06;69.41;100828.28;7357083;19;19919;-59
2023/06/17 03:38:14;;;;;;;;;;;;;;;17.05;69.64;100821.31;7354761;19;20255;-59
2023/06/17 03:40:39;;;;;;;;;;;;;;;17.05;68.53;100821.31;7360307;19;19934;-59
2023/06/17 03:43:04;;;;;;;;;;;;;;;17.05;69.38;100814.25;7351419;19;19919;-58
2023/06/17 03:45:30;;;;;;;;;;;;;;;17.05;68.96;100816.03;7357545;19;20325;-59
2023/06/17 03:47:56;;;;;;;;;;;;;;;17.04;69.77;100802.00;7353879;19;19926;-59
2023/06/17 03:50:21;;;;;;;;;;;;;;;17.04;69.30;100795.88;7351009;19;19911;-59
2023/06/17 03:52:46;;;;;;;;;;;;;;;17.04;69.75;100798.50;7354386;19;19961;-59
2023/06/17 03:55:12;;;;;;;;;;;;;;;17.05;70.07;100802.84;7356398;19;19922;-59
2023/06/17 03:57:37;;;;;;;;;;;;;;;17.05;69.83;100808.97;7354791;19;19923;-59
2023/06/17 04:00:04;;;;;;;;;;;;;;;17.05;69.22;100805.47;7357731;19;19926;-59
2023/06/17 04:02:30;;;;;;;;;;;;;;;17.05;69.41;100805.47;7357237;19;19922;-59
2023/06/17 04:04:55;;;;;;;;;;;;;;;17.05;69.18;100811.59;7356429;19;20454;-59
2023/06/17 04:07:21;;;;;;;;;;;;;;;17.04;68.91;100806.41;7356213;19;20558;-59
2023/06/17 04:09:46;;;;;;;;;;;;;;;17.03;69.50;100812.59;7357221;19;21183;-59
2023/06/17 04:12:11;;;;;;;;;;;;;;;17.03;69.34;100807.31;7356280;19;21549;-59
2023/06/17 04:14:37;;;;;;;;;;;;;;;17.02;69.48;100800.34;7357521;19;19943;-58
2023/06/17 04:17:03;;;;;;;;;;;;;;;17.01;69.04;100799.47;7360917;19;19943;-59
2023/06/17 04:19:29;;;;;;;;;;;;;;;17.02;69.37;100800.34;7355747;19;19922;-59
2023/06/17 04:21:54;;;;;;;;;;;;;;;17.01;68.98;100802.13;7353631;19;19915;-59
2023/06/17 04:24:19;;;;;;;;;;;;;;;17.01;68.79;100798.63;7350443;19;19910;-59
2023/06/17 04:26:45;;;;;;;;;;;;;;;17.01;69.22;100788.09;7360744;19;19918;-58
2023/06/17 04:29:10;;;;;;;;;;;;;;;16.98;68.95;100789.09;7359423;19;19930;-58
2023/06/17 04:31:40;;;;;;;;;;;;;;;16.98;68.96;100793.50;7364830;19;19924;-58
2023/06/17 04:34:06;;;;;;;;;;;;;;;16.98;68.47;100777.66;7360864;19;19923;-59
2023/06/17 04:36:32;;;;;;;;;;;;;;;16.97;68.24;100786.50;7363914;19;19932;-59
2023/06/17 04:38:58;;;;;;;;;;;;;;;16.96;68.25;100792.72;7358555;19;19911;-59
2023/06/17 04:41:23;;;;;;;;;;;;;;;16.95;68.79;100793.66;7359169;19;19942;-58
2023/06/17 04:43:49;;;;;;;;;;;;;;;16.94;68.54;100797.22;7359765;19;19918;-59
2023/06/17 04:46:16;;;;;;;;;;;;;;;16.93;69.22;100806.03;7361822;19;20561;-59
2023/06/17 04:48:42;;;;;;;;;;;;;;;16.92;69.29;100799.06;7357728;19;19926;-58
2023/06/17 04:51:07;;;;;;;;;;;;;;;16.92;68.98;100796.44;7363904;19;20294;-59
2023/06/17 04:53:32;;;;;;;;;;;;;;;16.93;68.98;100792.84;7357906;19;20679;-59
2023/06/17 04:55:57;;;;;;;;;;;;;;;16.93;68.95;100790.22;7361954;19;19926;-59
2023/06/17 04:58:23;;;;;;;;;;;;;;;16.94;69.00;100791.94;7359438;19;19915;-58
2023/06/17 05:00:48;;;;;;;;;;;;;;;16.93;69.17;100796.38;7363917;19;20649;-59
2023/06/17 05:03:13;;;;;;;;;;;;;;;16.93;69.04;100782.31;7360660;19;19942;-58
2023/06/17 05:05:39;;;;;;;;;;;;;;;16.94;69.05;100776.97;7355585;19;19926;-59
2023/06/17 05:08:04;;;;;;;;;;;;;;;16.95;69.29;100772.56;7361514;19;20003;-59
2023/06/17 05:10:29;;;;;;;;;;;;;;;16.96;69.14;100774.25;7360152;19;19926;-59
2023/06/17 05:12:54;;;;;;;;;;;;;;;16.95;69.57;100768.13;7363523;19;20620;-59
2023/06/17 05:15:20;;;;;;;;;;;;;;;16.96;69.33;100774.25;7359932;19;19937;-59
2023/06/17 05:17:45;;;;;;;;;;;;;;;16.96;69.05;100769.84;7363381;19;19936;-59
2023/06/17 05:20:10;;;;;;;;;;;;;;;16.97;69.56;100771.53;7352238;19;19930;-59
2023/06/17 05:22:35;;;;;;;;;;;;;;;16.98;69.72;100772.38;7355381;19;19926;-58
2023/06/17 05:25:01;;;;;;;;;;;;;;;17.01;69.56;100772.25;7358644;19;19937;-59
2023/06/17 05:27:26;;;;;;;;;;;;;;;17.02;69.67;100768.69;7359671;19;19931;-59
2023/06/17 05:29:52;;;;;;;;;;;;;;;17.04;69.38;100780.03;7360813;19;19931;-59
2023/06/17 05:32:17;;;;;;;;;;;;;;;17.06;69.43;100772.88;7351091;19;19932;-59
2023/06/17 05:34:43;;;;;;;;;;;;;;;17.08;69.91;100768.38;7360131;19;19927;-59
2023/06/17 05:37:08;;;;;;;;;;;;;;;17.08;69.64;100769.25;7356195;19;19927;-59
2023/06/17 05:39:33;;;;;;;;;;;;;;;17.10;69.53;100777.09;7361823;19;19915;-59
2023/06/17 05:41:59;;;;;;;;;;;;;;;17.09;69.63;100780.66;7359119;19;19934;-59
2023/06/17 05:44:24;;;;;;;;;;;;;;;17.10;69.79;100774.44;7359961;19;19919;-60
2023/06/17 05:46:49;;;;;;;;;;;;;;;17.10;69.97;100771.81;7359443;19;21774;-59
2023/06/17 05:49:15;;;;;;;;;;;;;;;17.10;70.07;100771.81;7359356;19;19942;-59
2023/06/17 05:51:41;;;;;;;;;;;;;;;17.12;69.62;100767.31;7359304;19;19967;-59
2023/06/17 05:54:06;;;;;;;;;;;;;;;17.12;70.11;100767.31;7341532;19;19919;-59
2023/06/17 05:56:31;;;;;;;;;;;;;;;17.12;69.95;100760.25;7355916;19;19930;-59
2023/06/17 05:58:56;;;;;;;;;;;;;;;17.13;69.48;100758.44;7354826;19;19911;-59
2023/06/17 06:01:22;;;;;;;;;;;;;;;17.14;69.85;100756.69;7358460;19;20728;-59
2023/06/17 06:03:47;;;;;;;;;;;;;;;17.16;70.21;100755.69;7351010;19;20635;-59
2023/06/17 06:06:12;;;;;;;;;;;;;;;17.17;70.19;100760.00;7358666;19;20283;-59
2023/06/17 06:08:37;;;;;;;;;;;;;;;17.19;70.10;100771.38;7357998;19;19919;-60
2023/06/17 06:11:02;;;;;;;;;;;;;;;17.22;70.38;100755.38;7358585;19;19919;-59
2023/06/17 06:13:28;;;;;;;;;;;;;;;17.26;70.10;100762.22;7356520;19;20772;-59
2023/06/17 06:15:54;;;;;;;;;;;;;;;17.29;70.13;100756.78;7356895;19;19922;-60
2023/06/17 06:18:19;;;;;;;;;;;;;;;17.35;70.49;100755.63;7360634;19;19922;-60
2023/06/17 06:20:44;;;;;;;;;;;;;;;17.38;70.44;100761.59;7353484;19;19923;-59
2023/06/17 06:23:10;;;;;;;;;;;;;;;17.43;70.41;100757.88;7355048;19;19929;-60
2023/06/17 06:25:35;;;;;;;;;;;;;;;17.48;70.69;100761.13;7359715;19;19922;-59
2023/06/17 06:28:00;;;;;;;;;;;;;;;17.53;71.08;100764.38;7351730;19;20481;-59
2023/06/17 06:30:25;;;;;;;;;;;;;;;17.58;71.11;100772.94;7359069;19;19998;-59
2023/06/17 06:32:51;;;;;;;;;;;;;;;17.64;70.81;100784.06;7357029;19;19923;-59
2023/06/17 06:35:16;;;;;;;;;;;;;;;17.71;70.82;100774.03;7355143;19;19931;-59
2023/06/17 06:37:41;;;;;;;;;;;;;;;17.79;71.03;100777.19;7357793;19;19926;-60
2023/06/17 06:40:07;;;;;;;;;;;;;;;17.86;71.06;100778.56;7352087;19;19927;-60
2023/06/17 06:42:32;;;;;;;;;;;;;;;17.95;71.22;100779.03;7355825;19;19929;-60
2023/06/17 06:44:57;;;;;;;;;;;;;;;18.04;70.94;100787.31;7352726;19;19980;-60
2023/06/17 06:47:23;;;;;;;;;;;;;;;18.12;71.42;100789.56;7357375;19;20316;-59
2023/06/17 06:49:48;;;;;;;;;;;;;;;18.19;71.31;100777.72;7357170;19;20000;-59
2023/06/17 06:52:13;;;;;;;;;;;;;;;18.27;71.05;100778.16;7355375;19;19921;-59
2023/06/17 06:54:39;;;;;;;;;;;;;;;18.34;71.46;100778.69;7356261;19;19925;-59
2023/06/17 06:57:04;;;;;;;;;;;;;;;18.41;71.22;100777.44;7355850;19;19918;-59
2023/06/17 06:59:29;;;;;;;;;;;;;;;18.49;71.02;100774.38;7356998;19;19918;-60
2023/06/17 07:01:55;;;;;;;;;;;;;;;18.54;71.08;100770.53;7353032;19;20421;-60
2023/06/17 07:04:20;;;;;;;;;;;;;;;18.60;71.24;100764.94;7357540;19;19939;-59
2023/06/17 07:06:46;;;;;;;;;;;;;;;18.66;71.41;100772.50;7351353;19;19938;-60
2023/06/17 07:09:11;;;;;;;;;;;;;;;18.73;71.77;100774.84;7357588;19;19911;-59
2023/06/17 07:11:36;;;;;;;;;;;;;;;18.79;71.44;100770.06;7356581;19;19938;-60
2023/06/17 07:14:02;;;;;;;;;;;;;;;18.85;71.73;100779.44;7353599;19;19930;-59
2023/06/17 07:16:27;;;;;;;;;;;;;;;18.88;71.45;100764.25;7359925;19;19911;-60
2023/06/17 07:18:52;;;;;;;;;;;;;;;18.93;71.36;100777.22;7351085;19;19923;-60
2023/06/17 07:21:17;;;;;;;;;;;;;;;18.99;71.79;100781.31;7357557;19;19927;-59
2023/06/17 07:23:43;;;;;;;;;;;;;;;19.04;71.91;100772.19;7352590;19;19951;-60
2023/06/17 07:26:08;;;;;;;;;;;;;;;19.11;71.58;100775.31;7351466;19;20365;-59
2023/06/17 07:28:33;;;;;;;;;;;;;;;19.18;72.11;100772.25;7352103;19;19935;-60
2023/06/17 07:30:59;;;;;;;;;;;;;;;19.25;71.82;100767.44;7359805;19;19922;-60
2023/06/17 07:33:25;;;;;;;;;;;;;;;19.33;72.05;100774.97;7349457;19;19935;-60
2023/06/17 07:35:50;;;;;;;;;;;;;;;19.39;71.99;100764.00;7357540;19;19929;-60
2023/06/17 07:38:16;;;;;;;;;;;;;;;19.45;72.15;100767.13;7353453;19;19974;-60
2023/06/17 07:40:41;;;;;;;;;;;;;;;19.50;72.12;100761.56;7358647;19;20067;-60
2023/06/17 07:43:06;;;;;;;;;;;;;;;19.56;72.07;100760.34;7352777;19;19919;-60
2023/06/17 07:45:31;;;;;;;;;;;;;;;19.58;72.19;100769.09;7357104;19;19911;-60
2023/06/17 07:47:57;;;;;;;;;;;;;;;19.63;72.35;100764.41;7356173;19;20016;-60
2023/06/17 07:50:22;;;;;;;;;;;;;;;19.66;71.81;100767.69;7353041;19;19986;-60
2023/06/17 07:52:50;;;;;;;;;;;;;;;19.73;72.21;100776.16;7356594;19;20538;-60
2023/06/17 07:55:15;;;;;;;;;;;;;;;19.76;72.15;100767.16;7355854;19;20248;-59
2023/06/17 07:57:40;;;;;;;;;;;;;;;19.77;71.81;100779.47;7356631;19;19917;-59
2023/06/17 08:00:13;;;;;;;;;;;;;;;19.78;71.51;100789.13;7347212;19;19922;-59
2023/06/17 08:02:41;;;;;;;;;;;;;;;19.77;71.73;100784.75;7352399;19;19929;-60
2023/06/17 08:05:07;;;;;;;;;;;;;;;19.74;71.23;100787.59;7357682;19;20275;-60
2023/06/17 08:07:32;;;;;;;;;;;;;;;19.69;71.23;100793.19;7355500;19;19923;-60
2023/06/17 08:09:58;;;;;;;;;;;;;;;19.67;71.47;100797.72;7350977;19;19927;-60
2023/06/17 08:12:23;;;;;;;;;;;;;;;19.65;71.23;100792.50;7356361;19;19925;-59
2023/06/17 08:14:48;;;;;;;;;;;;;;;19.63;71.67;100790.91;7353705;19;19950;-59
2023/06/17 08:17:13;;;;;;;;;;;;;;;19.59;71.49;100792.88;7351521;19;20920;-60
2023/06/17 08:19:40;;;;;;;;;;;;;;;19.55;71.44;100795.75;7349004;19;19922;-59
2023/06/17 08:22:06;;;;;;;;;;;;;;;19.52;71.33;100803.88;7354082;19;19933;-59
2023/06/17 08:24:31;;;;;;;;;;;;;;;19.47;70.82;100795.34;7349381;19;19919;-60
2023/06/17 08:26:56;;;;;;;;;;;;;;;19.41;70.81;100805.38;7354837;19;19922;-59
2023/06/17 08:29:22;;;;;;;;;;;;;;;19.38;71.20;100808.19;7351995;19;20882;-59
2023/06/17 08:31:48;;;;;;;;;;;;;;;19.34;71.10;100814.59;7353706;19;19929;-60
2023/06/17 08:34:13;;;;;;;;;;;;;;;19.31;70.81;100806.84;7348336;19;19960;-60
2023/06/17 08:36:41;;;;;;;;;;;;;;;19.25;70.85;100815.09;7353091;19;20627;-59
2023/06/17 08:39:06;;;;;;;;;;;;;;;19.22;71.13;100817.09;7353715;19;21366;-59
2023/06/17 08:41:37;;;;;;;;;;;;;;;19.19;70.68;100810.16;7350060;19;19925;-59
2023/06/17 08:44:04;;;;;;;;;;;;;;;19.15;71.13;100813.91;7350971;19;19994;-60
2023/06/17 08:46:29;;;;;;;;;;;;;;;19.11;71.09;100817.69;7352264;19;21017;-60
2023/06/17 08:48:57;;;;;;;;;;;;;;;19.08;71.19;100812.56;7351709;19;19935;-59
2023/06/17 08:51:22;;;;;;;;;;;;;;;19.03;71.20;100810.19;7352189;19;19935;-60
2023/06/17 08:53:47;;;;;;;;;;;;;;;18.99;71.09;100807.78;7342781;19;20434;-59
2023/06/17 08:56:13;;;;;;;;;;;;;;;18.93;71.23;100814.28;7351817;19;19923;-60
2023/06/17 08:58:38;;;;;;;;;;;;;;;18.90;71.11;100803.84;7351959;19;19926;-58
2023/06/17 09:01:06;;;;;;;;;;;;;;;18.87;70.86;100804.91;7353683;19;19938;-59
2023/06/17 09:03:37;;;;;;;;;;;;;;;18.84;71.34;100805.06;7350732;19;19923;-59
2023/06/17 09:06:03;;;;;;;;;;;;;;;18.81;71.37;100799.94;7350448;19;20729;-59
2023/06/17 09:08:32;;;;;;;;;;;;;;;18.80;71.49;100797.38;7354626;19;20519;-59
2023/06/17 09:11:04;;;;;;;;;;;;;;;18.80;71.25;100797.38;7349785;19;19932;-60
2023/06/17 09:13:29;;;;;;;;;;;;;;;18.81;71.48;100792.00;7359825;19;19919;-59
2023/06/17 09:15:55;;;;;;;;;;;;;;;18.82;71.70;100784.94;7356614;19;19927;-59
2023/06/17 09:18:20;;;;;;;;;;;;;;;18.82;71.70;100785.78;7357132;19;20002;-59
2023/06/17 09:20:51;;;;;;;;;;;;;;;18.83;71.54;100782.19;7355369;19;19923;-59
2023/06/17 09:23:17;;;;;;;;;;;;;;;18.85;71.22;100782.94;7338189;19;19915;-59
2023/06/17 09:25:42;;;;;;;;;;;;;;;18.84;71.43;100778.59;7349383;19;19918;-59
2023/06/17 09:28:08;;;;;;;;;;;;;;;18.83;71.58;100782.19;7354662;19;20707;-59
2023/06/17 09:30:35;;;;;;;;;;;;;;;18.82;71.47;100775.19;7359690;19;19943;-59
2023/06/17 09:33:01;;;;;;;;;;;;;;;18.81;71.58;100773.50;7357624;19;19929;-60
2023/06/17 09:35:27;;;;;;;;;;;;;;;18.77;71.55;100771.94;7353157;19;19935;-59
2023/06/17 09:37:53;;;;;;;;;;;;;;;18.71;71.12;100756.44;7356609;19;19923;-59
2023/06/17 09:40:19;;;;;;;;;;;;;;;18.71;71.45;100758.22;7356536;19;19919;-59
2023/06/17 09:42:46;;;;;;;;;;;;;;;18.67;71.55;100757.50;7354161;19;19947;-59
2023/06/17 09:45:18;;;;;;;;;;;;;;;18.66;71.33;100751.34;7354969;19;19938;-60
2023/06/17 09:47:49;;;;;;;;;;;;;;;18.62;71.54;100743.66;7358656;19;19927;-59
2023/06/17 09:50:15;;;;;;;;;;;;;;;18.59;71.72;100741.19;7356961;19;19929;-59
2023/06/17 09:52:40;;;;;;;;;;;;;;;18.58;71.60;100740.34;7353795;19;19914;-59
2023/06/17 09:55:06;;;;;;;;;;;;;;;18.60;71.80;100737.59;7357953;19;19915;-59
2023/06/17 09:57:32;;;;;;;;;;;;;;;18.59;71.70;100738.53;7360847;19;20357;-59
2023/06/17 10:00:00;;;;;;;;;;;;;;;18.59;71.99;100733.25;7355913;19;19917;-59
2023/06/17 10:02:26;;;;;;;;;;;;;;;18.59;71.69;100727.97;7355866;19;19915;-59
2023/06/17 10:04:52;;;;;;;;;;;;;;;18.60;72.00;100727.91;7355820;19;20641;-59
2023/06/17 10:07:19;;;;;;;;;;;;;;;18.62;71.67;100730.44;7353975;19;19993;-59
2023/06/17 10:09:45;;;;;;;;;;;;;;;18.63;71.76;100726.84;7357099;19;19923;-59
2023/06/17 10:12:11;;;;;;;;;;;;;;;18.66;72.30;100713.47;7355061;19;19992;-60
2023/06/17 10:14:37;;;;;;;;;;;;;;;18.69;72.19;100715.09;7352932;19;19925;-59
2023/06/17 10:17:05;;;;;;;;;;;;;;;18.71;71.81;100708.81;7352992;19;19919;-59
2023/06/17 10:19:32;;;;;;;;;;;;;;;18.73;72.02;100709.56;7354199;19;20016;-59
2023/06/17 10:21:59;;;;;;;;;;;;;;;18.75;71.99;100710.31;7356300;19;19931;-60
2023/06/17 10:24:25;;;;;;;;;;;;;;;18.76;72.23;100711.19;7354759;19;20438;-59
2023/06/17 10:26:51;;;;;;;;;;;;;;;18.78;71.82;100714.59;7353057;19;19919;-59
2023/06/17 10:29:16;;;;;;;;;;;;;;;18.79;72.19;100711.84;7356267;19;20378;-59
2023/06/17 10:31:42;;;;;;;;;;;;;;;18.80;71.90;100702.97;7354221;19;19915;-59
2023/06/17 10:34:13;;;;;;;;;;;;;;;18.84;72.04;100693.06;7358888;19;19927;-59
2023/06/17 10:36:38;;;;;;;;;;;;;;;18.87;71.88;100691.13;7358132;19;19926;-60
2023/06/17 10:39:05;;;;;;;;;;;;;;;18.90;72.48;100693.56;7340629;19;19918;-59
2023/06/17 10:41:44;;;;;;;;;;;;;;;18.98;72.69;100700.22;7357858;19;20275;-59
2023/06/17 10:44:28;;;;;;;;;;;;;;;19.05;72.58;100701.56;7354879;19;20378;-59
2023/06/17 10:46:54;;;;;;;;;;;;;;;19.14;72.99;100701.03;7353478;19;20447;-59
2023/06/17 10:49:20;;;;;;;;;;;;;;;19.23;72.96;100702.31;7358499;19;19911;-59
2023/06/17 10:51:49;;;;;;;;;;;;;;;19.32;73.14;100699.13;7357528;19;20510;-59
2023/06/17 10:54:14;;;;;;;;;;;;;;;19.40;73.32;100689.75;7350853;19;19927;-60
2023/06/17 10:56:52;;;;;;;;;;;;;;;19.50;73.17;100703.31;7356807;19;20579;-60
2023/06/17 10:59:31;;;;;;;;;;;;;;;19.59;73.13;100686.03;7357720;19;20722;-59
2023/06/17 11:02:03;;;;;;;;;;;;;;;19.65;73.25;100685.69;7332535;19;21039;-59
2023/06/17 11:04:30;;;;;;;;;;;;;;;19.68;72.95;100686.34;7356532;19;19925;-59
2023/06/17 11:06:56;;;;;;;;;;;;;;;19.73;72.81;100688.72;7348430;19;20658;-60
2023/06/17 11:09:25;;;;;;;;;;;;;;;19.79;73.21;100683.03;7353474;19;19911;-59
2023/06/17 11:11:51;;;;;;;;;;;;;;;19.87;73.12;100687.84;7354898;19;19943;-60
2023/06/17 11:14:19;;;;;;;;;;;;;;;19.98;73.63;100700.47;7354371;19;19911;-59
2023/06/17 11:16:44;;;;;;;;;;;;;;;20.09;73.69;100687.41;7353348;19;20335;-59
2023/06/17 11:19:10;;;;;;;;;;;;;;;20.20;73.52;100690.22;7356130;19;19922;-58
2023/06/17 11:21:37;;;;;;;;;;;;;;;20.30;73.85;100694.00;7354224;19;19970;-59
2023/06/17 11:24:03;;;;;;;;;;;;;;;20.37;73.55;100692.63;7354543;19;19918;-59
2023/06/17 11:26:28;;;;;;;;;;;;;;;20.40;73.59;100684.50;7348549;19;20351;-59
2023/06/17 11:28:53;;;;;;;;;;;;;;;20.48;73.96;100686.72;7356319;19;19945;-59
2023/06/17 11:31:20;;;;;;;;;;;;;;;20.55;73.84;100674.75;7347535;19;19927;-59
2023/06/17 11:33:47;;;;;;;;;;;;;;;20.59;73.66;100693.97;7353366;19;19929;-59
2023/06/17 11:36:13;;;;;;;;;;;;;;;20.63;73.46;100684.84;7356497;19;19923;-59
2023/06/17 11:38:39;;;;;;;;;;;;;;;20.68;73.79;100698.66;7355959;19;19972;-60
2023/06/17 11:41:05;;;;;;;;;;;;;;;20.70;73.07;100687.00;7355986;19;19927;-59
2023/06/17 11:43:30;;;;;;;;;;;;;;;20.75;73.08;100697.34;7354207;19;19935;-59
2023/06/17 11:45:58;;;;;;;;;;;;;;;20.78;73.31;100693.59;7352961;19;19947;-59
2023/06/17 11:48:27;;;;;;;;;;;;;;;20.81;73.32;100704.88;7352129;19;19911;-59
2023/06/17 11:50:54;;;;;;;;;;;;;;;20.83;73.12;100702.97;7355938;19;19939;-60
2023/06/17 11:53:27;;;;;;;;;;;;;;;20.83;72.77;100700.31;7353721;19;20300;-59
2023/06/17 11:55:52;;;;;;;;;;;;;;;20.84;72.35;100703.84;7335069;19;19923;-59
2023/06/17 11:58:18;;;;;;;;;;;;;;;20.83;72.43;100702.97;7353677;19;20287;-59
2023/06/17 12:00:44;;;;;;;;;;;;;;;20.82;72.64;100703.94;7352419;19;19930;-59
2023/06/17 12:03:09;;;;;;;;;;;;;;;20.81;71.90;100704.88;7353466;19;19918;-59
2023/06/17 12:05:36;;;;;;;;;;;;;;;20.81;72.52;100710.19;7353266;19;19919;-59
2023/06/17 12:08:01;;;;;;;;;;;;;;;20.87;72.89;100703.63;7353847;19;20720;-59
2023/06/17 12:10:27;;;;;;;;;;;;;;;20.93;73.04;100706.75;7355898;19;19939;-59
2023/06/17 12:12:58;;;;;;;;;;;;;;;21.06;73.68;100703.28;7349519;19;19936;-58
2023/06/17 12:15:28;;;;;;;;;;;;;;;21.27;74.91;100712.47;7355482;19;19915;-59
2023/06/17 12:17:54;;;;;;;;;;;;;;;21.46;74.90;100702.31;7357651;19;19926;-59
2023/06/17 12:20:20;;;;;;;;;;;;;;;21.64;74.37;100709.97;7356160;19;19915;-59
2023/06/17 12:22:46;;;;;;;;;;;;;;;21.81;74.43;100717.66;7356713;19;19943;-59
2023/06/17 12:25:12;;;;;;;;;;;;;;;21.96;74.62;100716.59;7353842;19;19926;-59
2023/06/17 12:27:38;;;;;;;;;;;;;;;22.06;73.74;100710.63;7355378;19;19923;-60
2023/06/17 12:30:04;;;;;;;;;;;;;;;22.13;73.36;100719.91;7356307;19;19925;-59